NORTHERN QUEENS  -  Freeze Warning Freeze Warning        SOUTHERN QUEENS  -  Freeze Warning Freeze Warning      

Active alerts

Northern Queens
  Details for Northern Queens Freeze Warning
Southern Queens
  Details for Southern Queens Freeze Warning


WXM80 ListenWXM80 Stop

You find our weather info also at:

UK Metoffice

WeatherCloud

Weather Underground

Northeastern Weather Network

AWEKAS

Citizen Weather Observer Program (CWOP)

HAMweather, WeatherForYou, PWS Weather


Weather Underground History page Text

Daily Summary for January 17, 2018 Units:  Metric    English   Both
« Previous Day
Next Day »
Daily Weekly Monthly Yearly Custom
  High: Low: Average:
Temperature: 2.1 °C -3.7 °C 0.2 °C
Dew Point: 1.7 °C -6.5 °C -0.7 °C
Humidity: 97 % 80 % 93 %
Wind Speed: 14.8 km/h 0 km/h 5 km/h
Wind Gust: 22.2 km/h - -
Wind:- - SW
Pressure: 1018.5 hPa 1012.1 hPa -
Precipitation: 1.02 mm    
Historical Graphs
 
 
Tabular Data for January 17, 2018
Time Temperature Dew Point Pressure Wind Wind Speed Wind Gust Humidity Rainfall Rate (Hourly)
00:07 -0.1 °C -0.9 °C 1018.5 hPa Calm     94 % 0 mm
00:26 -0.1 °C -0.9 °C 1018.5 hPa Calm     94 % 0 mm
00:33 0 °C -0.7 °C 1018.5 hPa Calm     95 % 0 mm
00:42 0.1 °C -0.7 °C 1018.2 hPa Calm     95 % 0 mm
00:47 0.2 °C -0.6 °C 1018.2 hPa Calm     95 % 0 mm
01:01 0.3 °C -0.4 °C 1018.2 hPa Calm     95 % 0 mm
01:07 0.3 °C -0.4 °C 1018.2 hPa Calm     95 % 0 mm
01:12 0.4 °C -0.3 °C 1017.8 hPa Calm     95 % 0 mm
01:25 0.4 °C -0.3 °C 1017.5 hPa Calm     95 % 0 mm
01:40 0.5 °C -0.2 °C 1017.5 hPa Calm     95 % 0 mm
01:47 0.6 °C -0.2 °C 1017.5 hPa Calm     95 % 0 mm
01:54 0.7 °C 0 °C 1017.8 hPa Calm     95 % 0 mm
02:01 0.8 °C 0.1 °C 1017.5 hPa Calm     95 % 0 mm
02:06 0.8 °C 0.3 °C 1017.5 hPa Calm     96 % 0 mm
02:26 1 °C 0.4 °C 1017.5 hPa Calm     96 % 0 mm
02:34 1.1 °C 0.6 °C 1017.5 hPa Calm     96 % 0 mm
02:44 1.2 °C 0.4 °C 1017.5 hPa Calm     95 % 0 mm
02:49 1.2 °C 0.5 °C 1017.5 hPa ENE 1 km/h 3.7 km/h 95 % 0 mm
02:54 1.2 °C 0.7 °C 1017.5 hPa ENE 0.8 km/h 5.6 km/h 96 % 0 mm
03:10 1.3 °C 0.7 °C 1017.5 hPa Calm     96 % 0 mm
03:20 1.3 °C 0.6 °C 1017.2 hPa Calm   1.6 km/h 95 % 0 mm
03:29 1.4 °C 0.8 °C 1017.2 hPa Calm     96 % 0 mm
03:36 1.4 °C 0.9 °C 1016.8 hPa ENE 0.2 km/h 1.9 km/h 96 % 0 mm
03:42 1.5 °C 0.9 °C 1016.8 hPa ENE 2.3 km/h 5.6 km/h 96 % 0 mm
03:54 1.7 °C 1.1 °C 1016.5 hPa ENE 3.2 km/h 5.6 km/h 96 % 0 mm
04:01 1.7 °C 1.2 °C 1016.5 hPa Calm     96 % 0 mm
04:08 1.7 °C 1.2 °C 1016.5 hPa NE 0.8 km/h 3.2 km/h 96 % 0 mm
04:16 1.8 °C 1.2 °C 1016.1 hPa East 4.3 km/h 7.4 km/h 96 % 0 mm
04:21 1.8 °C 1.2 °C 1016.1 hPa East 4.2 km/h 5.6 km/h 96 % 0 mm
04:36 1.8 °C 1.2 °C 1016.5 hPa ENE 3.1 km/h 5.6 km/h 96 % 0 mm
04:47 1.8 °C 1.3 °C 1016.1 hPa ENE 3.7 km/h 7.4 km/h 96 % 0 mm
04:53 1.9 °C 1.3 °C 1016.1 hPa NE 1 km/h 3.7 km/h 96 % 0 mm
05:07 1.9 °C 1.3 °C 1016.1 hPa ENE 5 km/h 8 km/h 96 % 0 mm
05:17 1.9 °C 1.3 °C 1016.1 hPa ENE 2.7 km/h 5.6 km/h 96 % 0 mm
05:29 1.8 °C 1.4 °C 1016.1 hPa ENE 0.5 km/h 3.7 km/h 97 % 0 mm
05:47 1.8 °C 1.4 °C 1016.1 hPa ENE 1 km/h 3.7 km/h 97 % 0 mm
05:54 1.8 °C 1.4 °C 1016.1 hPa ENE 0.8 km/h 3.7 km/h 97 % 0 mm
06:04 1.9 °C 1.4 °C 1016.1 hPa ENE 2.6 km/h 5.6 km/h 97 % 0 mm
06:14 1.9 °C 1.4 °C 1016.1 hPa NE 1.1 km/h 3.7 km/h 97 % 0 mm
06:30 1.9 °C 1.5 °C 1016.1 hPa ENE 2.3 km/h 4.8 km/h 97 % 0 mm
06:35 2 °C 1.6 °C 1016.1 hPa ENE 3.1 km/h 5.6 km/h 97 % 0 mm
06:41 2 °C 1.6 °C 1016.1 hPa ENE 5.8 km/h 7.4 km/h 97 % 0 mm
06:56 1.9 °C 1.5 °C 1015.8 hPa ENE 4.2 km/h 7.4 km/h 97 % 0 mm
07:05 1.9 °C 1.5 °C 1015.8 hPa ENE 9.5 km/h 14.8 km/h 97 % 0 mm
07:11 1.9 °C 1.4 °C 1015.8 hPa ENE 7.9 km/h 11.3 km/h 97 % 0 mm
07:20 1.9 °C 1.4 °C 1015.8 hPa ENE 6 km/h 7.4 km/h 97 % 0 mm
07:34 1.8 °C 1.4 °C 1015.8 hPa East 3.1 km/h 5.6 km/h 97 % 0 mm
07:46 1.8 °C 1.4 °C 1015.5 hPa ENE 6.1 km/h 9.3 km/h 97 % 0 mm
07:54 1.8 °C 1.4 °C 1015.8 hPa East 6.4 km/h 9.3 km/h 97 % 0 mm
08:01 1.9 °C 1.4 °C 1015.5 hPa East 5.1 km/h 7.4 km/h 97 % 0 mm
08:21 2 °C 1.6 °C 1015.5 hPa East 5.5 km/h 8 km/h 97 % 0 mm
08:27 1.9 °C 1.5 °C 1015.8 hPa ENE 6.6 km/h 9.3 km/h 97 % 0 mm
08:34 1.9 °C 1.5 °C 1015.8 hPa East 6.1 km/h 8 km/h 97 % 0 mm
08:40 1.9 °C 1.5 °C 1015.8 hPa ENE 4 km/h 5.6 km/h 97 % 0 mm
08:45 1.9 °C 1.5 °C 1015.8 hPa ENE 5.1 km/h 5.6 km/h 97 % 0 mm
08:51 1.9 °C 1.5 °C 1015.8 hPa ENE 6.1 km/h 8 km/h 97 % 0 mm
08:58 2 °C 1.6 °C 1015.8 hPa ENE 5.1 km/h 7.4 km/h 97 % 0 mm
09:07 2.1 °C 1.6 °C 1015.8 hPa ENE 3.5 km/h 5.6 km/h 97 % 0 mm
09:15 2.1 °C 1.6 °C 1015.8 hPa ENE 4.7 km/h 5.6 km/h 97 % 0 mm
09:21 2.1 °C 1.7 °C 1015.8 hPa East 5.3 km/h 8 km/h 97 % 0.25 mm
09:27 2.1 °C 1.7 °C 1015.8 hPa East 3.9 km/h 7.4 km/h 97 % 0.25 mm
09:45 2.1 °C 1.6 °C 1015.8 hPa East 5 km/h 7.4 km/h 97 % 0.25 mm
10:04 2.1 °C 1.6 °C 1015.8 hPa NNE 4.2 km/h 5.6 km/h 97 % 0.25 mm
10:12 2.1 °C 1.7 °C 1015.8 hPa NNE 5.8 km/h 6.4 km/h 97 % 0.25 mm
10:23 2.1 °C 1.6 °C 1015.8 hPa NNE 7.2 km/h 9.7 km/h 97 % 0 mm
10:28 2 °C 1.6 °C 1015.8 hPa North 5.1 km/h 8 km/h 97 % 0.25 mm
10:36 1.9 °C 1.5 °C 1015.8 hPa NNW 3.5 km/h 5.6 km/h 97 % 0.25 mm
10:41 1.9 °C 1.4 °C 1015.8 hPa NNE 3.7 km/h 6.4 km/h 97 % 0.25 mm
10:49 1.8 °C 1.3 °C 1015.8 hPa North 5.5 km/h 9.3 km/h 97 % 0.25 mm
10:56 1.7 °C 1.3 °C 1015.8 hPa NNW 1.4 km/h 5.6 km/h 97 % 0.25 mm
11:06 1.6 °C 1.2 °C 1015.5 hPa NW 1.6 km/h 8 km/h 97 % 0 mm
11:13 1.6 °C 1.1 °C 1015.5 hPa NW 2.7 km/h 5.6 km/h 97 % 0.25 mm
11:29 1.6 °C 1.1 °C 1015.1 hPa NW 5.1 km/h 7.4 km/h 97 % 0 mm
11:49 1.6 °C 1.1 °C 1014.8 hPa WNW 4.5 km/h 7.4 km/h 97 % 0 mm
11:56 1.6 °C 1.1 °C 1014.8 hPa WNW 0.3 km/h 5.6 km/h 97 % 0 mm
12:08 1.6 °C 1.2 °C 1014.1 hPa WNW 1.8 km/h 5.6 km/h 97 % 0.25 mm
12:16 1.7 °C 1.2 °C 1014.1 hPa WNW 2.9 km/h 5.6 km/h 97 % 0.25 mm
12:49 1.6 °C 1.1 °C 1013.8 hPa West 6.8 km/h 9.3 km/h 97 % 0.25 mm
13:14 1.3 °C 0.9 °C 1013.8 hPa WNW 3.4 km/h 5.6 km/h 97 % 0 mm
13:19 1.3 °C 0.8 °C 1013.4 hPa WNW 6.1 km/h 11.1 km/h 97 % 0 mm
13:26 1.2 °C 0.8 °C 1013.4 hPa West 5.1 km/h 14.8 km/h 97 % 0 mm
13:43 1.1 °C 0.6 °C 1013.1 hPa West 1.9 km/h 5.6 km/h 97 % 0 mm
13:50 1 °C 0.6 °C 1013.1 hPa West 2.4 km/h 13 km/h 97 % 0 mm
14:04 0.9 °C 0.4 °C 1012.8 hPa WNW 5.8 km/h 13 km/h 97 % 0 mm
14:16 0.9 °C 0.4 °C 1012.8 hPa WNW 1 km/h 5.6 km/h 97 % 0.25 mm
14:21 0.9 °C 0.4 °C 1013.1 hPa WNW 6.6 km/h 11.1 km/h 97 % 0.25 mm
14:40 0.9 °C 0.4 °C 1013.1 hPa West 1.6 km/h 6.4 km/h 97 % 0.25 mm
14:45 0.9 °C 0.4 °C 1012.8 hPa WNW 3.9 km/h 5.6 km/h 97 % 0.25 mm
14:50 0.9 °C 0.4 °C 1012.8 hPa WNW 1.1 km/h 1.9 km/h 97 % 0.25 mm
14:55 0.9 °C 0.5 °C 1012.8 hPa WNW 4.7 km/h 7.4 km/h 97 % 0.25 mm
15:00 0.9 °C 0.5 °C 1012.8 hPa WNW 3.7 km/h 5.6 km/h 97 % 0.25 mm
15:06 0.9 °C 0.5 °C 1012.8 hPa WNW 4.8 km/h 9.7 km/h 97 % 0 mm
15:11 0.9 °C 0.5 °C 1012.8 hPa WNW 3.5 km/h 5.6 km/h 97 % 0 mm
15:16 0.9 °C 0.5 °C 1012.8 hPa WNW 1.6 km/h 6.4 km/h 97 % 0 mm
15:20 0.9 °C 0.5 °C 1012.8 hPa NW 2.9 km/h 6.4 km/h 97 % 0 mm
15:25 0.9 °C 0.5 °C 1012.8 hPa NW 1.9 km/h 8 km/h 97 % 0 mm
15:31 0.9 °C 0.5 °C 1012.8 hPa WNW 7.1 km/h 8 km/h 97 % 0 mm
15:36 0.9 °C 0.5 °C 1012.8 hPa NW 5.1 km/h 9.7 km/h 97 % 0 mm
15:38 0.9 °C 0.5 °C 1013.1 hPa WNW 7.6 km/h 14.8 km/h 97 % 0 mm
15:41 0.9 °C 0.5 °C 1013.1 hPa NW 3.2 km/h 9.3 km/h 97 % 0 mm
15:48 0.9 °C 0.4 °C 1012.8 hPa WNW 5.3 km/h 9.7 km/h 97 % 0 mm
15:53 0.9 °C 0.4 °C 1013.1 hPa WNW 5.5 km/h 9.3 km/h 97 % 0 mm
15:58 0.8 °C 0.4 °C 1013.1 hPa WNW 4.2 km/h 6.4 km/h 97 % 0 mm
16:03 0.8 °C 0.4 °C 1013.1 hPa WNW 3.2 km/h 9.3 km/h 97 % 0 mm
16:05 0.8 °C 0.4 °C 1013.1 hPa WNW 3.4 km/h 9.3 km/h 97 % 0 mm
16:10 0.8 °C 0.4 °C 1013.1 hPa West 2.7 km/h 5.6 km/h 97 % 0 mm
16:11 0.8 °C 0.4 °C 1013.1 hPa WNW 1.6 km/h 8 km/h 97 % 0 mm
16:15 0.8 °C 0.4 °C 1012.8 hPa West 1.9 km/h 5.6 km/h 97 % 0 mm
16:19 0.8 °C 0.3 °C 1012.8 hPa WNW 3.2 km/h 5.6 km/h 97 % 0 mm
16:20 0.8 °C 0.3 °C 1012.8 hPa WNW 4.3 km/h 7.4 km/h 97 % 0 mm
16:21 0.8 °C 0.3 °C 1012.8 hPa WNW 2.6 km/h 7.4 km/h 97 % 0 mm
16:23 0.8 °C 0.3 °C 1012.8 hPa West 3.4 km/h 7.4 km/h 97 % 0 mm
16:26 0.8 °C 0.3 °C 1012.8 hPa WNW 4.3 km/h 9.3 km/h 97 % 0 mm
16:28 0.8 °C 0.3 °C 1012.8 hPa WNW 6.3 km/h 13 km/h 97 % 0 mm
16:29 0.8 °C 0.3 °C 1012.8 hPa WNW 5 km/h 11.1 km/h 97 % 0 mm
16:30 0.8 °C 0.3 °C 1012.8 hPa West 6.1 km/h 9.3 km/h 97 % 0 mm
16:33 0.7 °C 0.3 °C 1012.8 hPa WNW 4.3 km/h 11.1 km/h 97 % 0 mm
16:35 0.7 °C 0.3 °C 1012.8 hPa NNW 9 km/h 16.7 km/h 97 % 0 mm
16:40 0.7 °C 0.2 °C 1012.8 hPa NNW 7.6 km/h 17.7 km/h 97 % 0 mm
16:41 0.7 °C 0.2 °C 1012.8 hPa WNW 8 km/h 11.3 km/h 97 % 0 mm
16:46 0.7 °C 0.2 °C 1012.4 hPa NW 5.8 km/h 9.3 km/h 97 % 0 mm
16:51 0.7 °C 0.1 °C 1012.4 hPa WNW 9.7 km/h 19.3 km/h 96 % 0 mm
16:55 0.7 °C 0.1 °C 1012.4 hPa NW 7.9 km/h 13 km/h 96 % 0 mm
17:00 0.6 °C 0.1 °C 1012.4 hPa WNW 6.4 km/h 9.7 km/h 96 % 0 mm
17:05 0.7 °C 0.1 °C 1012.4 hPa NW 7.1 km/h 13 km/h 96 % 0 mm
17:10 0.7 °C 0.1 °C 1012.4 hPa West 10 km/h 13 km/h 96 % 0 mm
17:15 0.6 °C 0.1 °C 1012.4 hPa WNW 6.4 km/h 12.9 km/h 96 % 0 mm
17:20 0.5 °C -0.1 °C 1012.4 hPa WNW 6.3 km/h 13 km/h 96 % 0 mm
17:25 0.4 °C -0.3 °C 1012.4 hPa WNW 6.1 km/h 13 km/h 95 % 0 mm
17:30 0.3 °C -0.4 °C 1012.8 hPa West 5.3 km/h 18.5 km/h 95 % 0 mm
17:31 0.2 °C -0.5 °C 1012.4 hPa West 6.3 km/h 11.1 km/h 95 % 0 mm
17:36 0.1 °C -0.6 °C 1012.4 hPa WNW 8.7 km/h 16.7 km/h 95 % 0 mm
17:41 0 °C -0.8 °C 1012.4 hPa West 5.6 km/h 11.1 km/h 94 % 0 mm
17:46 -0.1 °C -0.9 °C 1012.4 hPa WNW 9 km/h 12.9 km/h 94 % 0 mm
17:51 -0.2 °C -1 °C 1012.8 hPa WSW 7.9 km/h 14.8 km/h 94 % 0 mm
17:56 -0.2 °C -1.1 °C 1012.8 hPa NW 7.1 km/h 20.4 km/h 94 % 0 mm
18:01 -0.3 °C -1.1 °C 1012.8 hPa WSW 12.9 km/h 20.4 km/h 94 % 0 mm
18:06 -0.3 °C -1.2 °C 1012.8 hPa WNW 11.7 km/h 14.8 km/h 94 % 0 mm
18:11 -0.4 °C -1.4 °C 1012.8 hPa WSW 5.5 km/h 13 km/h 93 % 0 mm
18:17 -0.4 °C -1.4 °C 1012.8 hPa West 8.4 km/h 18.5 km/h 93 % 0 mm
18:22 -0.4 °C -1.4 °C 1013.1 hPa NW 8.9 km/h 18.5 km/h 93 % 0 mm
18:27 -0.5 °C -1.5 °C 1013.1 hPa West 8.9 km/h 14.8 km/h 93 % 0 mm
18:32 -0.5 °C -1.5 °C 1013.1 hPa WNW 3.5 km/h 13 km/h 93 % 0 mm
18:37 -0.6 °C -1.6 °C 1013.1 hPa WNW 8.7 km/h 14.8 km/h 93 % 0 mm
18:42 -0.6 °C -1.6 °C 1012.8 hPa West 10.5 km/h 18.5 km/h 93 % 0 mm
18:47 -0.6 °C -1.6 °C 1012.8 hPa NW 8 km/h 14.8 km/h 93 % 0 mm
18:52 -0.6 °C -1.7 °C 1012.8 hPa NNW 7.7 km/h 11.3 km/h 92 % 0 mm
18:57 -0.6 °C -1.7 °C 1012.8 hPa WNW 7.1 km/h 13 km/h 92 % 0 mm
19:02 -0.7 °C -1.8 °C 1012.8 hPa West 7.2 km/h 11.1 km/h 92 % 0 mm
19:07 -0.7 °C -1.8 °C 1012.4 hPa NW 10.9 km/h 16.7 km/h 92 % 0 mm
19:12 -0.7 °C -2 °C 1012.8 hPa WNW 7.2 km/h 18.5 km/h 91 % 0 mm
19:17 -0.8 °C -2.1 °C 1012.4 hPa NW 7.6 km/h 9.3 km/h 91 % 0 mm
19:22 -0.8 °C -2.1 °C 1012.4 hPa WNW 7.9 km/h 13 km/h 91 % 0 mm
19:27 -0.8 °C -2.1 °C 1012.4 hPa NNW 6.3 km/h 18.5 km/h 91 % 0 mm
19:32 -0.9 °C -2.2 °C 1012.4 hPa NW 10 km/h 14.8 km/h 91 % 0 mm
19:37 -0.9 °C -2.3 °C 1012.4 hPa WNW 6.4 km/h 16.7 km/h 90 % 0 mm
19:42 -0.9 °C -2.4 °C 1012.8 hPa NW 5.8 km/h 11.1 km/h 90 % 0 mm
19:45 -0.9 °C -2.4 °C 1012.8 hPa NW 6.6 km/h 14.8 km/h 90 % 0 mm
19:50 -1 °C -2.4 °C 1012.8 hPa WNW 3.5 km/h 8 km/h 90 % 0 mm
19:55 -1 °C -2.4 °C 1012.8 hPa NW 7.4 km/h 9.7 km/h 90 % 0 mm
20:00 -1.1 °C -2.5 °C 1012.4 hPa North 7.7 km/h 11.1 km/h 90 % 0 mm
20:05 -1.1 °C -2.5 °C 1012.4 hPa WNW 1.9 km/h 7.4 km/h 90 % 0 mm
20:10 -1.1 °C -2.5 °C 1012.8 hPa NNW 4.7 km/h 13 km/h 90 % 0 mm
20:15 -1.1 °C -2.5 °C 1012.8 hPa NNW 2.7 km/h 13 km/h 90 % 0 mm
20:20 -1.1 °C -2.3 °C 1013.1 hPa WNW 6.1 km/h 11.3 km/h 91 % 0 mm
20:25 -1.1 °C -2.5 °C 1012.8 hPa NW 7.9 km/h 13 km/h 90 % 0 mm
20:30 -1.1 °C -2.6 °C 1012.8 hPa NNW 3.5 km/h 14.8 km/h 90 % 0 mm
20:35 -1.1 °C -2.6 °C 1012.8 hPa NE 9.5 km/h 9.5 km/h 90 % 0 mm
20:40 -1.2 °C -2.7 °C 1012.8 hPa NNW 8.9 km/h 11.3 km/h 89 % 0 mm
20:45 -1.2 °C -2.8 °C 1013.1 hPa NNW 9.7 km/h 14.5 km/h 89 % 0 mm
20:50 -1.3 °C -3 °C 1012.8 hPa NNW 8 km/h 12.9 km/h 88 % 0 mm
20:55 -1.3 °C -3 °C 1012.8 hPa NNW 3.2 km/h 11.3 km/h 88 % 0 mm
21:01 -1.3 °C -3 °C 1012.8 hPa NW 6.3 km/h 9.3 km/h 88 % 0 mm
21:06 -1.3 °C -3.1 °C 1013.1 hPa NW 7.6 km/h 16.1 km/h 88 % 0 mm
21:11 -1.4 °C -3.1 °C 1012.8 hPa NW 6.3 km/h 13 km/h 88 % 0 mm
21:16 -1.4 °C -3.3 °C 1012.8 hPa NW 3.5 km/h 13 km/h 87 % 0 mm
21:21 -1.4 °C -3.3 °C 1012.8 hPa NW 2.4 km/h 5.6 km/h 87 % 0 mm
21:26 -1.4 °C -3.2 °C 1012.8 hPa NNW 6.4 km/h 11.1 km/h 88 % 0 mm
21:31 -1.5 °C -3.2 °C 1013.1 hPa NNW 5.3 km/h 8 km/h 88 % 0 mm
21:36 -1.5 °C -3.4 °C 1012.8 hPa NNW 5.1 km/h 9.3 km/h 87 % 0 mm
21:41 -1.6 °C -3.4 °C 1012.8 hPa NNW 6.6 km/h 11.1 km/h 87 % 0 mm
21:46 -1.6 °C -3.5 °C 1012.8 hPa WNW 7.2 km/h 11.1 km/h 87 % 0 mm
21:51 -1.7 °C -3.8 °C 1013.1 hPa NNW 7.1 km/h 9.7 km/h 86 % 0 mm
21:56 -1.8 °C -3.8 °C 1013.1 hPa NW 6.3 km/h 11.3 km/h 86 % 0 mm
22:01 -1.8 °C -3.8 °C 1013.1 hPa WNW 7.1 km/h 12.9 km/h 86 % 0 mm
22:06 -1.8 °C -4 °C 1012.8 hPa NW 5 km/h 11.1 km/h 85 % 0 mm
22:11 -1.8 °C -4 °C 1013.1 hPa NW 2.9 km/h 7.4 km/h 85 % 0 mm
22:16 -1.9 °C -4.1 °C 1013.1 hPa NNW 5.1 km/h 14.8 km/h 85 % 0 mm
22:21 -2 °C -4.3 °C 1012.8 hPa NNW 4.3 km/h 18.5 km/h 84 % 0 mm
22:27 -2.1 °C -4.4 °C 1012.4 hPa NNW 7.6 km/h 11.1 km/h 84 % 0 mm
22:28 -2.1 °C -4.4 °C 1012.8 hPa NW 7.4 km/h 11.1 km/h 84 % 0 mm
22:33 -2.2 °C -4.5 °C 1013.1 hPa NNW 3.7 km/h 9.3 km/h 84 % 0 mm
22:38 -2.2 °C -4.7 °C 1013.1 hPa NNW 8.9 km/h 16.7 km/h 83 % 0 mm
22:43 -2.3 °C -4.8 °C 1012.8 hPa NNE 6.9 km/h 11.1 km/h 83 % 0 mm
22:48 -2.4 °C -4.9 °C 1012.8 hPa NNE 14.8 km/h 20.4 km/h 83 % 0 mm
22:53 -2.5 °C -5.2 °C 1012.8 hPa NNE 10.8 km/h 14.8 km/h 82 % 0 mm
22:58 -2.6 °C -5.3 °C 1012.8 hPa North 12.1 km/h 14.8 km/h 82 % 0 mm
23:03 -2.7 °C -5.4 °C 1013.1 hPa NNE 10.1 km/h 20.9 km/h 82 % 0 mm
23:08 -2.9 °C -5.6 °C 1012.8 hPa North 11.3 km/h 19.3 km/h 82 % 0 mm
23:14 -3 °C -5.8 °C 1012.8 hPa NNE 11.9 km/h 22.2 km/h 81 % 0 mm
23:19 -3.1 °C -5.9 °C 1012.8 hPa North 10.9 km/h 14.8 km/h 81 % 0 mm
23:24 -3.2 °C -5.8 °C 1012.8 hPa NNW 5.8 km/h 11.1 km/h 82 % 0 mm
23:29 -3.2 °C -5.7 °C 1012.8 hPa North 5.8 km/h 11.1 km/h 83 % 0 mm
23:34 -3.3 °C -5.8 °C 1012.4 hPa North 4 km/h 13 km/h 83 % 0 mm
23:39 -3.3 °C -5.8 °C 1012.8 hPa North 9 km/h 14.8 km/h 83 % 0 mm
23:44 -3.4 °C -6 °C 1012.4 hPa NNE 14.3 km/h 18.5 km/h 82 % 0 mm
23:49 -3.6 °C -6.3 °C 1012.4 hPa NNE 8.5 km/h 11.1 km/h 81 % 0 mm
23:54 -3.6 °C -6.5 °C 1012.1 hPa NNE 7.6 km/h 13 km/h 80 % 0 mm
23:59 -3.7 °C -6.5 °C 1012.1 hPa North 5.6 km/h 11.1 km/h 81 % 0 mm
Crab Meadow Weather
Compliments of Weather Underground - 2.5 mb

Script developed by  Jim McMurry - jmcmurry@mwt.net Adapted for the template by  Wim van der Kuil - Leuven-Template.eu

Extremes: Alaska and Hawaii have the same heat record. In Pahala, Hawaii the temperature on April 27, 1931 was 100 degrees F. Alaska's state heat record is also 100 degrees F. on June 27, 1915 at Fort Yukon.